sensor_id;sensor_type;location;lat;lon;timestamp;pressure;altitude;pressure_sealevel;temperature;humidity
58367;BME280;57745;42.524;12.052;2023-12-04T00:00:24;96831.63;;;13.25;40.06
58367;BME280;57745;42.524;12.052;2023-12-04T00:02:50;96826.69;;;13.07;40.85
58367;BME280;57745;42.524;12.052;2023-12-04T00:05:15;96817.81;;;13.19;40.48
58367;BME280;57745;42.524;12.052;2023-12-04T00:07:41;96831.94;;;13.14;39.94
58367;BME280;57745;42.524;12.052;2023-12-04T00:10:07;96825.38;;;13.12;40.21
58367;BME280;57745;42.524;12.052;2023-12-04T00:12:33;96827.66;;;13.13;40.27
58367;BME280;57745;42.524;12.052;2023-12-04T00:14:59;96831.03;;;13.05;40.41
58367;BME280;57745;42.524;12.052;2023-12-04T00:17:24;96824.13;;;12.87;40.53
58367;BME280;57745;42.524;12.052;2023-12-04T00:19:50;96829.63;;;13.13;39.97
58367;BME280;57745;42.524;12.052;2023-12-04T00:22:16;96827.09;;;12.93;40.59
58367;BME280;57745;42.524;12.052;2023-12-04T00:24:41;96829.94;;;13.02;40.30
58367;BME280;57745;42.524;12.052;2023-12-04T00:27:06;96832.78;;;13.11;39.98
58367;BME280;57745;42.524;12.052;2023-12-04T00:29:32;96831.38;;;12.78;40.49
58367;BME280;57745;42.524;12.052;2023-12-04T00:31:57;96830.91;;;12.95;40.35
58367;BME280;57745;42.524;12.052;2023-12-04T00:34:23;96834.72;;;13.11;40.05
58367;BME280;57745;42.524;12.052;2023-12-04T00:36:48;96834.06;;;12.94;40.51
58367;BME280;57745;42.524;12.052;2023-12-04T00:39:14;96827.09;;;12.93;40.52
58367;BME280;57745;42.524;12.052;2023-12-04T00:41:39;96829.59;;;13.00;40.25
58367;BME280;57745;42.524;12.052;2023-12-04T00:44:04;96833.06;;;13.01;40.44
58367;BME280;57745;42.524;12.052;2023-12-04T00:46:30;96832.13;;;13.07;40.17
58367;BME280;57745;42.524;12.052;2023-12-04T00:48:55;96826.13;;;13.12;39.97
58367;BME280;57745;42.524;12.052;2023-12-04T00:51:21;96826.69;;;13.07;40.35
58367;BME280;57745;42.524;12.052;2023-12-04T00:53:46;96821.34;;;13.04;40.61
58367;BME280;57745;42.524;12.052;2023-12-04T00:56:12;96830.06;;;12.70;40.80
58367;BME280;57745;42.524;12.052;2023-12-04T00:58:37;96831.75;;;12.92;40.38
58367;BME280;57745;42.524;12.052;2023-12-04T01:01:03;96828.97;;;13.09;40.00
58367;BME280;57745;42.524;12.052;2023-12-04T01:03:28;96841.50;;;13.06;39.77
58367;BME280;57745;42.524;12.052;2023-12-04T01:05:58;96833.63;;;12.95;40.20
58367;BME280;57745;42.524;12.052;2023-12-04T01:08:23;96834.44;;;13.09;40.09
58367;BME280;57745;42.524;12.052;2023-12-04T01:10:49;96839.47;;;12.81;40.57
58367;BME280;57745;42.524;12.052;2023-12-04T01:13:14;96844.81;;;12.85;40.38
58367;BME280;57745;42.524;12.052;2023-12-04T01:15:39;96849.53;;;12.97;40.23
58367;BME280;57745;42.524;12.052;2023-12-04T01:18:05;96849.53;;;12.97;40.66
58367;BME280;57745;42.524;12.052;2023-12-04T01:20:30;96851.16;;;12.94;40.27
58367;BME280;57745;42.524;12.052;2023-12-04T01:22:58;96846.19;;;12.77;40.93
58367;BME280;57745;42.524;12.052;2023-12-04T01:25:24;96846.81;;;12.97;40.31
58367;BME280;57745;42.524;12.052;2023-12-04T01:27:49;96844.28;;;12.90;40.64
58367;BME280;57745;42.524;12.052;2023-12-04T01:30:15;96836.81;;;12.78;41.19
58367;BME280;57745;42.524;12.052;2023-12-04T01:32:40;96837.84;;;12.84;40.51
58367;BME280;57745;42.524;12.052;2023-12-04T01:35:06;96841.53;;;12.90;40.95
58367;BME280;57745;42.524;12.052;2023-12-04T01:37:32;96841.09;;;12.79;40.71
58367;BME280;57745;42.524;12.052;2023-12-04T01:39:57;96836.00;;;12.93;40.52
58367;BME280;57745;42.524;12.052;2023-12-04T01:42:22;96839.59;;;12.90;40.54
58367;BME280;57745;42.524;12.052;2023-12-04T01:44:48;96828.16;;;12.83;40.69
58367;BME280;57745;42.524;12.052;2023-12-04T01:47:14;96824.47;;;13.02;40.54
58367;BME280;57745;42.524;12.052;2023-12-04T01:49:39;96819.97;;;12.83;40.51
58367;BME280;57745;42.524;12.052;2023-12-04T01:52:05;96827.88;;;13.06;40.46
58367;BME280;57745;42.524;12.052;2023-12-04T01:54:31;96820.09;;;12.92;40.46
58367;BME280;57745;42.524;12.052;2023-12-04T01:56:57;96822.31;;;12.97;40.72
58367;BME280;57745;42.524;12.052;2023-12-04T01:59:25;96818.81;;;12.97;40.17
58367;BME280;57745;42.524;12.052;2023-12-04T02:01:52;96814.25;;;13.06;40.04
58367;BME280;57745;42.524;12.052;2023-12-04T02:04:18;96812.81;;;12.89;40.26
58367;BME280;57745;42.524;12.052;2023-12-04T02:06:43;96813.84;;;13.08;40.23
58367;BME280;57745;42.524;12.052;2023-12-04T02:09:09;96813.44;;;12.80;40.80
58367;BME280;57745;42.524;12.052;2023-12-04T02:11:38;96806.72;;;12.85;40.26
58367;BME280;57745;42.524;12.052;2023-12-04T02:14:04;96788.53;;;12.94;40.30
58367;BME280;57745;42.524;12.052;2023-12-04T02:16:31;96790.13;;;12.79;40.46
58367;BME280;57745;42.524;12.052;2023-12-04T02:19:01;96792.53;;;12.77;40.36
58367;BME280;57745;42.524;12.052;2023-12-04T02:21:27;96798.06;;;12.74;40.59
58367;BME280;57745;42.524;12.052;2023-12-04T02:23:52;96794.13;;;12.75;41.07
58367;BME280;57745;42.524;12.052;2023-12-04T02:26:22;96790.94;;;12.92;40.24
58367;BME280;57745;42.524;12.052;2023-12-04T02:28:54;96792.75;;;12.83;40.51
58367;BME280;57745;42.524;12.052;2023-12-04T02:31:21;96801.78;;;12.80;40.59
58367;BME280;57745;42.524;12.052;2023-12-04T02:33:52;96793.97;;;12.82;40.60
58367;BME280;57745;42.524;12.052;2023-12-04T02:36:19;96798.78;;;12.62;40.95
58367;BME280;57745;42.524;12.052;2023-12-04T02:38:45;96787.19;;;12.86;40.54
58367;BME280;57745;42.524;12.052;2023-12-04T02:41:11;96789.38;;;12.79;40.46
58367;BME280;57745;42.524;12.052;2023-12-04T02:43:36;96784.25;;;12.81;40.90
58367;BME280;57745;42.524;12.052;2023-12-04T02:46:01;96787.88;;;12.62;40.88
58367;BME280;57745;42.524;12.052;2023-12-04T02:48:27;96782.09;;;12.88;40.34
58367;BME280;57745;42.524;12.052;2023-12-04T02:50:52;96780.94;;;12.61;41.01
58367;BME280;57745;42.524;12.052;2023-12-04T02:53:18;96784.69;;;12.79;40.59
58367;BME280;57745;42.524;12.052;2023-12-04T02:55:43;96785.47;;;12.80;40.70
58367;BME280;57745;42.524;12.052;2023-12-04T02:58:09;96784.78;;;12.76;40.54
58367;BME280;57745;42.524;12.052;2023-12-04T03:00:34;96787.28;;;12.70;40.70
58367;BME280;57745;42.524;12.052;2023-12-04T03:03:00;96785.41;;;12.67;40.69
58367;BME280;57745;42.524;12.052;2023-12-04T03:05:25;96786.97;;;12.81;40.50
58367;BME280;57745;42.524;12.052;2023-12-04T03:07:51;96781.00;;;12.73;40.45
58367;BME280;57745;42.524;12.052;2023-12-04T03:10:16;96779.25;;;12.50;41.08
58367;BME280;57745;42.524;12.052;2023-12-04T03:12:42;96779.22;;;12.67;41.00
58367;BME280;57745;42.524;12.052;2023-12-04T03:15:07;96771.13;;;12.63;41.11
58367;BME280;57745;42.524;12.052;2023-12-04T03:17:33;96765.59;;;12.67;40.98
58367;BME280;57745;42.524;12.052;2023-12-04T03:19:58;96765.81;;;12.59;40.81
58367;BME280;57745;42.524;12.052;2023-12-04T03:22:24;96760.47;;;12.56;41.36
58367;BME280;57745;42.524;12.052;2023-12-04T03:24:49;96767.47;;;12.70;40.78
58367;BME280;57745;42.524;12.052;2023-12-04T03:27:15;96775.81;;;12.63;40.91
58367;BME280;57745;42.524;12.052;2023-12-04T03:29:40;96766.88;;;12.62;40.46
58367;BME280;57745;42.524;12.052;2023-12-04T03:32:06;96768.13;;;12.74;40.33
58367;BME280;57745;42.524;12.052;2023-12-04T03:34:31;96772.97;;;12.53;41.36
58367;BME280;57745;42.524;12.052;2023-12-04T03:36:57;96779.09;;;12.57;40.74
58367;BME280;57745;42.524;12.052;2023-12-04T03:39:22;96780.94;;;12.61;41.25
58367;BME280;57745;42.524;12.052;2023-12-04T03:41:47;96773.53;;;12.61;41.06
58367;BME280;57745;42.524;12.052;2023-12-04T03:44:13;96774.19;;;12.65;40.98
58367;BME280;57745;42.524;12.052;2023-12-04T03:46:38;96764.03;;;12.53;40.89
58367;BME280;57745;42.524;12.052;2023-12-04T03:49:05;96770.34;;;12.50;40.80
58367;BME280;57745;42.524;12.052;2023-12-04T03:51:30;96766.84;;;12.49;40.26
58367;BME280;57745;42.524;12.052;2023-12-04T03:53:56;96759.63;;;12.59;40.69
58367;BME280;57745;42.524;12.052;2023-12-04T03:56:21;96764.34;;;12.42;41.02
58367;BME280;57745;42.524;12.052;2023-12-04T03:58:47;96765.16;;;12.55;41.24
58367;BME280;57745;42.524;12.052;2023-12-04T04:01:12;96773.25;;;12.43;41.71
58367;BME280;57745;42.524;12.052;2023-12-04T04:03:37;96774.28;;;12.62;40.94
58367;BME280;57745;42.524;12.052;2023-12-04T04:06:03;96775.69;;;12.53;41.23
58367;BME280;57745;42.524;12.052;2023-12-04T04:08:29;96786.09;;;12.42;41.38
58367;BME280;57745;42.524;12.052;2023-12-04T04:10:55;96775.91;;;12.46;41.38
58367;BME280;57745;42.524;12.052;2023-12-04T04:13:20;96780.66;;;12.42;41.29
58367;BME280;57745;42.524;12.052;2023-12-04T04:15:45;96784.69;;;12.50;41.36
58367;BME280;57745;42.524;12.052;2023-12-04T04:18:11;96780.84;;;12.64;41.10
58367;BME280;57745;42.524;12.052;2023-12-04T04:20:36;96773.78;;;12.67;40.92
58367;BME280;57745;42.524;12.052;2023-12-04T04:23:02;96790.63;;;12.62;41.41
58367;BME280;57745;42.524;12.052;2023-12-04T04:25:27;96783.00;;;12.56;41.10
58367;BME280;57745;42.524;12.052;2023-12-04T04:27:53;96795.19;;;12.65;40.80
58367;BME280;57745;42.524;12.052;2023-12-04T04:30:18;96796.16;;;12.58;41.07
58367;BME280;57745;42.524;12.052;2023-12-04T04:32:44;96798.59;;;12.69;41.22
58367;BME280;57745;42.524;12.052;2023-12-04T04:35:09;96795.97;;;12.65;41.36
58367;BME280;57745;42.524;12.052;2023-12-04T04:37:35;96802.25;;;12.62;41.33
58367;BME280;57745;42.524;12.052;2023-12-04T04:40:01;96794.69;;;12.70;41.06
58367;BME280;57745;42.524;12.052;2023-12-04T04:42:26;96796.22;;;12.71;41.17
58367;BME280;57745;42.524;12.052;2023-12-04T04:44:51;96802.75;;;12.73;41.13
58367;BME280;57745;42.524;12.052;2023-12-04T04:47:17;96788.91;;;12.68;41.03
58367;BME280;57745;42.524;12.052;2023-12-04T04:49:42;96788.25;;;12.76;40.96
58367;BME280;57745;42.524;12.052;2023-12-04T04:52:08;96792.91;;;12.63;41.22
58367;BME280;57745;42.524;12.052;2023-12-04T04:54:33;96794.34;;;12.68;41.29
58367;BME280;57745;42.524;12.052;2023-12-04T04:56:59;96786.19;;;12.68;41.26
58367;BME280;57745;42.524;12.052;2023-12-04T04:59:24;96792.34;;;12.55;41.67
58367;BME280;57745;42.524;12.052;2023-12-04T05:01:49;96815.34;;;12.67;41.29
58367;BME280;57745;42.524;12.052;2023-12-04T05:04:15;96803.19;;;12.72;41.04
58367;BME280;57745;42.524;12.052;2023-12-04T05:06:40;96800.09;;;12.57;41.38
58367;BME280;57745;42.524;12.052;2023-12-04T05:09:06;96797.59;;;12.63;41.18
58367;BME280;57745;42.524;12.052;2023-12-04T05:11:31;96797.06;;;12.68;40.87
58367;BME280;57745;42.524;12.052;2023-12-04T05:13:57;96800.59;;;12.81;40.83
58367;BME280;57745;42.524;12.052;2023-12-04T05:16:22;96801.78;;;12.80;41.03
58367;BME280;57745;42.524;12.052;2023-12-04T05:18:49;96803.50;;;12.74;41.01
58367;BME280;57745;42.524;12.052;2023-12-04T05:21:14;96807.06;;;12.58;41.81
58367;BME280;57745;42.524;12.052;2023-12-04T05:23:40;96801.78;;;12.80;40.95
58367;BME280;57745;42.524;12.052;2023-12-04T05:26:06;96806.09;;;12.65;41.11
58367;BME280;57745;42.524;12.052;2023-12-04T05:28:32;96810.16;;;12.73;41.14
58367;BME280;57745;42.524;12.052;2023-12-04T05:30:58;96805.69;;;12.79;40.85
58367;BME280;57745;42.524;12.052;2023-12-04T05:33:23;96798.78;;;12.62;41.28
58367;BME280;57745;42.524;12.052;2023-12-04T05:35:49;96803.78;;;12.63;41.48
58367;BME280;57745;42.524;12.052;2023-12-04T05:38:16;96808.28;;;12.70;41.43
58367;BME280;57745;42.524;12.052;2023-12-04T05:40:42;96807.06;;;12.58;42.04
58367;BME280;57745;42.524;12.052;2023-12-04T05:43:07;96809.16;;;12.67;41.82
58367;BME280;57745;42.524;12.052;2023-12-04T05:45:32;96809.34;;;12.59;41.39
58367;BME280;57745;42.524;12.052;2023-12-04T05:47:58;96815.72;;;12.53;41.72
58367;BME280;57745;42.524;12.052;2023-12-04T05:50:23;96809.88;;;12.54;42.00
58367;BME280;57745;42.524;12.052;2023-12-04T05:52:50;96817.69;;;12.52;41.86
58367;BME280;57745;42.524;12.052;2023-12-04T05:55:15;96814.38;;;12.74;41.41
58367;BME280;57745;42.524;12.052;2023-12-04T05:57:41;96810.53;;;12.58;41.39
58367;BME280;57745;42.524;12.052;2023-12-04T06:00:07;96806.75;;;12.69;41.57
58367;BME280;57745;42.524;12.052;2023-12-04T06:02:41;96805.53;;;12.57;41.71
58367;BME280;57745;42.524;12.052;2023-12-04T06:05:07;96807.34;;;12.47;42.24
58367;BME280;57745;42.524;12.052;2023-12-04T06:07:33;96805.81;;;12.46;41.87
58367;BME280;57745;42.524;12.052;2023-12-04T06:09:59;96821.25;;;12.49;41.93
58367;BME280;57745;42.524;12.052;2023-12-04T06:12:24;96819.22;;;12.53;41.64
58367;BME280;57745;42.524;12.052;2023-12-04T06:14:49;96806.72;;;12.56;41.73
58367;BME280;57745;42.524;12.052;2023-12-04T06:17:16;96809.59;;;12.49;41.94
58367;BME280;57745;42.524;12.052;2023-12-04T06:19:41;96817.66;;;12.69;42.07
58367;BME280;57745;42.524;12.052;2023-12-04T06:22:07;96812.38;;;12.62;41.97
58367;BME280;57745;42.524;12.052;2023-12-04T06:24:33;96804.09;;;12.52;41.93
58367;BME280;57745;42.524;12.052;2023-12-04T06:26:58;96803.38;;;12.65;41.97
58367;BME280;57745;42.524;12.052;2023-12-04T06:29:24;96803.31;;;12.52;41.95
58367;BME280;57745;42.524;12.052;2023-12-04T06:31:50;96809.53;;;12.52;41.85
58367;BME280;57745;42.524;12.052;2023-12-04T06:34:16;96805.22;;;12.68;41.38
58367;BME280;57745;42.524;12.052;2023-12-04T06:36:41;96810.34;;;12.66;41.55
58367;BME280;57745;42.524;12.052;2023-12-04T06:39:10;96792.59;;;12.74;41.10
58367;BME280;57745;42.524;12.052;2023-12-04T06:41:40;96796.56;;;12.73;41.56
58367;BME280;57745;42.524;12.052;2023-12-04T06:44:06;96800.13;;;12.70;41.50
58367;BME280;57745;42.524;12.052;2023-12-04T06:46:34;96804.94;;;12.49;42.18
58367;BME280;57745;42.524;12.052;2023-12-04T06:49:04;96803.91;;;12.59;41.80
58367;BME280;57745;42.524;12.052;2023-12-04T06:51:30;96804.94;;;12.49;41.88
58367;BME280;57745;42.524;12.052;2023-12-04T06:53:56;96807.06;;;12.58;41.72
58367;BME280;57745;42.524;12.052;2023-12-04T06:56:21;96813.34;;;12.55;41.75
58367;BME280;57745;42.524;12.052;2023-12-04T06:58:46;96817.81;;;12.62;41.62
58367;BME280;57745;42.524;12.052;2023-12-04T07:01:12;96820.53;;;12.62;41.96
58367;BME280;57745;42.524;12.052;2023-12-04T07:03:37;96829.16;;;12.60;41.78
58367;BME280;57745;42.524;12.052;2023-12-04T07:06:03;96824.78;;;12.63;42.18
58367;BME280;57745;42.524;12.052;2023-12-04T07:08:29;96828.19;;;12.67;42.04
58367;BME280;57745;42.524;12.052;2023-12-04T07:10:54;96834.81;;;12.66;41.54
58367;BME280;57745;42.524;12.052;2023-12-04T07:13:20;96833.28;;;12.65;41.97
58367;BME280;57745;42.524;12.052;2023-12-04T07:15:45;96830.66;;;12.61;42.16
58367;BME280;57745;42.524;12.052;2023-12-04T07:18:11;96834.56;;;12.47;42.72
58367;BME280;57745;42.524;12.052;2023-12-04T07:20:36;96836.06;;;12.48;42.38
58367;BME280;57745;42.524;12.052;2023-12-04T07:23:02;96827.38;;;12.82;41.68
58367;BME280;57745;42.524;12.052;2023-12-04T07:25:27;96830.28;;;12.75;42.21
58367;BME280;57745;42.524;12.052;2023-12-04T07:27:53;96836.44;;;12.63;42.39
58367;BME280;57745;42.524;12.052;2023-12-04T07:30:18;96834.31;;;12.71;42.48
58367;BME280;57745;42.524;12.052;2023-12-04T07:32:44;96831.72;;;12.80;42.15
58367;BME280;57745;42.524;12.052;2023-12-04T07:35:09;96836.41;;;12.79;42.32
58367;BME280;57745;42.524;12.052;2023-12-04T07:37:34;96831.94;;;12.73;42.62
58367;BME280;57745;42.524;12.052;2023-12-04T07:40:00;96823.84;;;12.69;42.38
58367;BME280;57745;42.524;12.052;2023-12-04T07:42:26;96823.47;;;12.54;42.76
58367;BME280;57745;42.524;12.052;2023-12-04T07:44:51;96828.03;;;12.86;42.24
58367;BME280;57745;42.524;12.052;2023-12-04T07:47:17;96824.97;;;12.72;42.75
58367;BME280;57745;42.524;12.052;2023-12-04T07:49:44;96835.84;;;12.72;42.51
58367;BME280;57745;42.524;12.052;2023-12-04T07:52:10;96834.41;;;12.67;42.73
58367;BME280;57745;42.524;12.052;2023-12-04T07:54:37;96835.31;;;12.77;43.06
58367;BME280;57745;42.524;12.052;2023-12-04T07:57:02;96840.34;;;12.91;42.62
58367;BME280;57745;42.524;12.052;2023-12-04T07:59:28;96842.94;;;12.82;42.79
58367;BME280;57745;42.524;12.052;2023-12-04T08:01:54;96838.28;;;12.82;42.80
58367;BME280;57745;42.524;12.052;2023-12-04T08:04:19;96847.53;;;12.85;43.20
58367;BME280;57745;42.524;12.052;2023-12-04T08:06:45;96858.78;;;13.00;42.31
58367;BME280;57745;42.524;12.052;2023-12-04T08:09:10;96861.03;;;12.88;42.85
58367;BME280;57745;42.524;12.052;2023-12-04T08:11:36;96862.22;;;12.87;42.90
58367;BME280;57745;42.524;12.052;2023-12-04T08:14:03;96872.25;;;12.90;43.07
58367;BME280;57745;42.524;12.052;2023-12-04T08:16:28;96872.25;;;12.90;43.60
58367;BME280;57745;42.524;12.052;2023-12-04T08:18:55;96876.34;;;13.11;43.07
58367;BME280;57745;42.524;12.052;2023-12-04T08:21:20;96872.28;;;13.03;43.15
58367;BME280;57745;42.524;12.052;2023-12-04T08:23:46;96884.44;;;13.15;42.94
58367;BME280;57745;42.524;12.052;2023-12-04T08:26:12;96875.78;;;13.04;42.79
58367;BME280;57745;42.524;12.052;2023-12-04T08:28:37;96879.63;;;13.06;43.18
58367;BME280;57745;42.524;12.052;2023-12-04T08:31:07;96878.16;;;13.18;42.36
58367;BME280;57745;42.524;12.052;2023-12-04T08:33:33;96884.03;;;13.00;43.04
58367;BME280;57745;42.524;12.052;2023-12-04T08:36:00;96878.59;;;13.00;43.17
58367;BME280;57745;42.524;12.052;2023-12-04T08:38:25;96876.56;;;13.04;42.73
58367;BME280;57745;42.524;12.052;2023-12-04T08:40:51;96873.13;;;13.16;42.89
58367;BME280;57745;42.524;12.052;2023-12-04T08:43:16;96880.88;;;13.18;43.08
58367;BME280;57745;42.524;12.052;2023-12-04T08:45:42;96868.72;;;13.06;43.23
58367;BME280;57745;42.524;12.052;2023-12-04T08:48:07;96871.59;;;13.15;43.11
58367;BME280;57745;42.524;12.052;2023-12-04T08:50:34;96876.28;;;13.15;42.84
58367;BME280;57745;42.524;12.052;2023-12-04T08:52:59;96878.56;;;13.16;43.03
58367;BME280;57745;42.524;12.052;2023-12-04T08:55:25;96867.69;;;13.16;43.09
58367;BME280;57745;42.524;12.052;2023-12-04T08:57:50;96874.69;;;13.30;42.98
58367;BME280;57745;42.524;12.052;2023-12-04T09:00:16;96878.06;;;13.21;43.50
58367;BME280;57745;42.524;12.052;2023-12-04T09:02:41;96872.13;;;13.10;43.51
58367;BME280;57745;42.524;12.052;2023-12-04T09:05:07;96873.97;;;13.13;43.79
58367;BME280;57745;42.524;12.052;2023-12-04T09:07:35;96885.22;;;13.15;43.42
58367;BME280;57745;42.524;12.052;2023-12-04T09:10:01;96882.56;;;13.12;43.91
58367;BME280;57745;42.524;12.052;2023-12-04T09:12:27;96879.63;;;13.06;44.20
58367;BME280;57745;42.524;12.052;2023-12-04T09:14:52;96873.31;;;13.09;43.72
58367;BME280;57745;42.524;12.052;2023-12-04T09:17:18;96868.56;;;13.26;43.58
58367;BME280;57745;42.524;12.052;2023-12-04T09:19:43;96860.72;;;13.15;43.39
58367;BME280;57745;42.524;12.052;2023-12-04T09:22:08;96863.75;;;13.17;43.56
58367;BME280;57745;42.524;12.052;2023-12-04T09:24:34;96864.13;;;13.32;43.46
58367;BME280;57745;42.524;12.052;2023-12-04T09:26:59;96874.44;;;13.24;43.98
58367;BME280;57745;42.524;12.052;2023-12-04T09:29:25;96863.03;;;13.29;43.37
58367;BME280;57745;42.524;12.052;2023-12-04T09:31:51;96874.38;;;13.41;43.42
58367;BME280;57745;42.524;12.052;2023-12-04T09:34:17;96867.53;;;13.74;42.83
58367;BME280;57745;42.524;12.052;2023-12-04T09:36:43;96859.84;;;13.18;43.64
58367;BME280;57745;42.524;12.052;2023-12-04T09:39:08;96863.88;;;13.26;43.90
58367;BME280;57745;42.524;12.052;2023-12-04T09:41:35;96854.88;;;13.42;43.26
58367;BME280;57745;42.524;12.052;2023-12-04T09:44:00;96851.78;;;13.27;44.00
58367;BME280;57745;42.524;12.052;2023-12-04T09:46:27;96853.78;;;13.40;43.48
58367;BME280;57745;42.524;12.052;2023-12-04T09:48:53;96851.59;;;13.35;44.02
58367;BME280;57745;42.524;12.052;2023-12-04T09:51:20;96843.88;;;13.33;44.27
58367;BME280;57745;42.524;12.052;2023-12-04T09:53:47;96851.47;;;13.25;44.16
58367;BME280;57745;42.524;12.052;2023-12-04T09:56:15;96845.69;;;13.23;44.07
58367;BME280;57745;42.524;12.052;2023-12-04T09:58:41;96839.38;;;13.26;44.09
58367;BME280;57745;42.524;12.052;2023-12-04T10:01:08;96834.94;;;13.33;44.19
58367;BME280;57745;42.524;12.052;2023-12-04T10:03:35;96822.25;;;13.26;44.25
58367;BME280;57745;42.524;12.052;2023-12-04T10:06:01;96827.63;;;13.29;44.12
58367;BME280;57745;42.524;12.052;2023-12-04T10:08:27;96821.31;;;13.33;44.41
58367;BME280;57745;42.524;12.052;2023-12-04T10:10:52;96816.97;;;13.35;44.46
58367;BME280;57745;42.524;12.052;2023-12-04T10:13:17;96814.22;;;13.35;44.35
58367;BME280;57745;42.524;12.052;2023-12-04T10:15:47;96808.78;;;13.35;44.83
58367;BME280;57745;42.524;12.052;2023-12-04T10:18:27;96812.69;;;13.34;44.94
58367;BME280;57745;42.524;12.052;2023-12-04T10:20:54;96805.06;;;13.42;44.69
58367;BME280;57745;42.524;12.052;2023-12-04T10:23:20;96808.31;;;13.24;44.76
58367;BME280;57745;42.524;12.052;2023-12-04T10:25:48;96799.94;;;13.31;44.32
58367;BME280;57745;42.524;12.052;2023-12-04T10:28:15;96805.06;;;13.29;44.65
58367;BME280;57745;42.524;12.052;2023-12-04T10:30:41;96799.84;;;13.35;44.99
58367;BME280;57745;42.524;12.052;2023-12-04T10:33:07;96798.75;;;13.32;44.61
58367;BME280;57745;42.524;12.052;2023-12-04T10:35:34;96793.41;;;13.28;44.99
58367;BME280;57745;42.524;12.052;2023-12-04T10:38:05;96785.00;;;13.36;44.72
58367;BME280;57745;42.524;12.052;2023-12-04T10:40:32;96775.75;;;13.33;45.23
58367;BME280;57745;42.524;12.052;2023-12-04T10:45:43;96777.16;;;13.38;44.86
58367;BME280;57745;42.524;12.052;2023-12-04T10:48:11;96771.38;;;13.36;45.16
58367;BME280;57745;42.524;12.052;2023-12-04T10:50:41;96764.75;;;13.37;45.06
58367;BME280;57745;42.524;12.052;2023-12-04T10:53:08;96752.97;;;13.40;44.99
58367;BME280;57745;42.524;12.052;2023-12-04T10:55:35;96761.72;;;13.35;45.22
58367;BME280;57745;42.524;12.052;2023-12-04T10:58:05;96758.66;;;13.33;45.36
58367;BME280;57745;42.524;12.052;2023-12-04T11:00:47;96745.25;;;13.38;45.31
58367;BME280;57745;42.524;12.052;2023-12-04T11:03:19;96732.50;;;13.35;45.40
58367;BME280;57745;42.524;12.052;2023-12-04T11:05:51;96710.91;;;13.53;45.45
58367;BME280;57745;42.524;12.052;2023-12-04T11:08:18;96705.34;;;13.57;45.27
58367;BME280;57745;42.524;12.052;2023-12-04T11:11:01;96694.56;;;13.41;45.50
58367;BME280;57745;42.524;12.052;2023-12-04T11:13:30;96690.72;;;13.51;45.28
58367;BME280;57745;42.524;12.052;2023-12-04T11:18:51;96694.19;;;13.64;45.40
58367;BME280;57745;42.524;12.052;2023-12-04T11:21:18;96682.56;;;13.51;45.59
58367;BME280;57745;42.524;12.052;2023-12-04T11:23:46;96682.72;;;13.35;46.24
58367;BME280;57745;42.524;12.052;2023-12-04T11:26:13;96687.69;;;13.49;46.36
58367;BME280;57745;42.524;12.052;2023-12-04T11:28:42;96688.22;;;13.56;46.12
58367;BME280;57745;42.524;12.052;2023-12-04T11:31:08;96683.53;;;13.57;45.86
58367;BME280;57745;42.524;12.052;2023-12-04T11:33:35;96697.59;;;13.55;45.86
58367;BME280;57745;42.524;12.052;2023-12-04T11:36:08;96693.53;;;13.60;45.94
58367;BME280;57745;42.524;12.052;2023-12-04T11:38:35;96699.78;;;13.48;46.21
58367;BME280;57745;42.524;12.052;2023-12-04T11:41:17;96686.88;;;13.61;46.16
58367;BME280;57745;42.524;12.052;2023-12-04T11:43:45;96694.19;;;13.64;45.82
58367;BME280;57745;42.524;12.052;2023-12-04T11:46:11;96693.97;;;13.71;46.26
58367;BME280;57745;42.524;12.052;2023-12-04T11:48:37;96688.63;;;13.68;46.26
58367;BME280;57745;42.524;12.052;2023-12-04T11:51:05;96677.84;;;13.64;46.23
58367;BME280;57745;42.524;12.052;2023-12-04T11:53:32;96668.69;;;13.71;46.15
58367;BME280;57745;42.524;12.052;2023-12-04T11:55:57;96674.00;;;13.74;46.25
58367;BME280;57745;42.524;12.052;2023-12-04T11:58:23;96667.13;;;13.82;46.28
58367;BME280;57745;42.524;12.052;2023-12-04T12:00:48;96666.59;;;13.75;46.36
58367;BME280;57745;42.524;12.052;2023-12-04T12:03:14;96657.28;;;13.85;46.15
58367;BME280;57745;42.524;12.052;2023-12-04T12:05:40;96654.53;;;13.50;47.16
58367;BME280;57745;42.524;12.052;2023-12-04T12:08:07;96656.50;;;13.50;46.84
58367;BME280;57745;42.524;12.052;2023-12-04T12:10:33;96648.44;;;13.59;46.86
58367;BME280;57745;42.524;12.052;2023-12-04T12:12:59;96653.00;;;13.62;46.64
58367;BME280;57745;42.524;12.052;2023-12-04T12:15:25;96648.84;;;13.70;46.45
58367;BME280;57745;42.524;12.052;2023-12-04T12:17:51;96641.50;;;13.80;46.71
58367;BME280;57745;42.524;12.052;2023-12-04T12:20:17;96644.19;;;13.58;47.15
58367;BME280;57745;42.524;12.052;2023-12-04T12:22:43;96642.81;;;13.75;46.64
58367;BME280;57745;42.524;12.052;2023-12-04T12:25:10;96632.97;;;13.56;47.63
58367;BME280;57745;42.524;12.052;2023-12-04T12:27:36;96639.00;;;13.38;48.01
58367;BME280;57745;42.524;12.052;2023-12-04T12:30:03;96636.31;;;13.60;47.14
58367;BME280;57745;42.524;12.052;2023-12-04T12:32:33;96643.31;;;13.48;47.47
58367;BME280;57745;42.524;12.052;2023-12-04T12:35:02;96635.69;;;13.56;47.24
58367;BME280;57745;42.524;12.052;2023-12-04T12:37:29;96637.53;;;13.59;47.20
58367;BME280;57745;42.524;12.052;2023-12-04T12:39:54;96637.28;;;13.66;47.12
58367;BME280;57745;42.524;12.052;2023-12-04T12:42:27;96644.91;;;13.71;47.04
58367;BME280;57745;42.524;12.052;2023-12-04T12:44:54;96637.00;;;13.86;47.26
58367;BME280;57745;42.524;12.052;2023-12-04T12:47:20;96641.78;;;13.94;47.13
58367;BME280;57745;42.524;12.052;2023-12-04T12:49:46;96637.31;;;13.88;47.77